TPOK1: Kansas River, State-Line, KS

                                SHEF ID:       TPOK1     MARAIS DES CYGNES R NR KS-MO ST
STATION TYPE:

STAGE STAGE(2) RIV-FLOW BAT-LOAD
ft ft cfs volt
Ccp-Rev Ccp-Rev Ccp-Rev Ccp-Rev
(America/Chicago)
08/02 00:00 8.95 8.96 2729 12.46
08/02 01:00 8.81 8.80 2637 12.46
08/02 02:00 8.69 8.70 2559 12.42
08/02 03:00 8.57 8.51 2482 12.40
08/02 04:00 8.40 8.38 2374 12.37
08/02 05:00 8.26 8.21 2286 12.36
08/02 06:00 8.12 8.11 2200 12.31
08/02 07:00 7.97 8.02 2109 12.31
08/02 08:00 7.86 7.83 2043 12.34
08/02 09:00 7.69 7.66 1942 12.67
08/02 10:00 7.59 7.56 1884 12.93
08/02 11:00 7.47 7.45 1815 12.89
08/02 12:00 7.33 7.29 1736 13.36
08/02 13:00 7.23 7.16 1680 13.35
08/02 14:00 7.12 7.08 1619 13.16
08/02 15:00 7.02 6.99 1554 13.06
08/02 16:00 6.91 6.88 1483 12.99
08/02 17:00 6.85 6.79 1444 12.92
08/02 18:00 6.75 6.73 1381 12.77
08/02 19:00 6.69 6.69 1344 12.65
08/02 20:00 6.62 6.58 1301 12.59
08/02 21:00 6.55 6.50 1259 12.53
08/02 22:00 6.50 6.47 1230 12.53
08/02 23:00 6.43 6.36 1189 12.48
Data processed at Mon 03Aug2026 04:52 GMT

NOTICE: If you are parsing this page

Please convert to using our Data API. Starting early 2026 we will be migrating to: https://water.usace.army.mil with modern pages rendered in JavaScript. When this migration completes you will no longer be able to scrape this page! CWMSDataAPI (CDA)

Timeseries IDs (TSIDs)

TSIDs used from left to right in the data table
MKSL.Stage.Inst.1Hour.0.Ccp-Rev
MKSL.Stage-Alt.Inst.1Hour.0.Ccp-Rev
MKSL.Flow.Inst.1Hour.0.Ccp-Rev
MKSL.Volt-Battery Load.Inst.1Hour.0.Ccp-Rev

                            

All information presented herein is the property of the government of the United States of America and may be revised or deleted at any time without prior notice. Dissemination of this information without the expressed written consent of the Public Affairs Office, Tulsa District U.S. Army Corps of Engineers is strictly prohibited. These data are gathered electronically and, as presented, have NOT undergone any form of quality control. These data are NOT guaranteed to be valid or correct.